createdAt,value
2018-03-04T00:00:04.136Z,43.80
2018-03-04T00:00:36.181Z,43.80
2018-03-04T00:01:08.220Z,43.80
2018-03-04T00:01:40.260Z,43.70
2018-03-04T00:02:12.298Z,43.70
2018-03-04T00:02:45.093Z,43.80
2018-03-04T00:03:17.124Z,43.70
2018-03-04T00:03:49.180Z,43.80
2018-03-04T00:04:21.221Z,43.80
2018-03-04T00:04:54.015Z,43.80
2018-03-04T00:05:26.041Z,43.70
2018-03-04T00:05:58.851Z,43.70
2018-03-04T00:06:30.876Z,43.70
2018-03-04T00:07:02.914Z,43.70
2018-03-04T00:07:35.728Z,43.80
2018-03-04T00:08:07.759Z,43.70
2018-03-04T00:08:39.834Z,43.70
2018-03-04T00:09:11.859Z,43.80
2018-03-04T00:09:43.906Z,43.80
2018-03-04T00:10:16.680Z,43.90
2018-03-04T00:10:48.717Z,43.80
2018-03-04T00:11:20.780Z,43.80
2018-03-04T00:11:53.020Z,43.80
2018-03-04T00:12:25.267Z,43.70
2018-03-04T00:12:57.378Z,43.90
2018-03-04T00:13:29.671Z,43.90
2018-03-04T00:14:01.788Z,43.90
2018-03-04T00:14:33.901Z,43.80
2018-03-04T00:15:06.025Z,43.90
2018-03-04T00:15:38.179Z,43.90
2018-03-04T00:16:11.089Z,43.90
2018-03-04T00:16:43.940Z,44.00
2018-03-04T00:17:15.946Z,43.90
2018-03-04T00:17:47.970Z,43.90
2018-03-04T00:18:19.989Z,43.90
2018-03-04T00:18:52.794Z,44.00
2018-03-04T00:19:24.820Z,43.90
2018-03-04T00:19:56.873Z,44.00
2018-03-04T00:20:29.674Z,44.00
2018-03-04T00:21:01.715Z,43.90
2018-03-04T00:21:33.741Z,44.00
2018-03-04T00:22:05.790Z,43.90
2018-03-04T00:22:37.832Z,43.90
2018-03-04T00:23:10.628Z,44.00
2018-03-04T00:23:42.661Z,43.90
2018-03-04T00:24:15.474Z,43.90
2018-03-04T00:24:47.514Z,44.00
2018-03-04T00:25:19.542Z,44.00
2018-03-04T00:25:51.614Z,43.90
2018-03-04T00:26:24.386Z,43.90
2018-03-04T00:26:56.437Z,43.90
2018-03-04T00:27:28.464Z,43.90
2018-03-04T00:28:01.263Z,44.00
2018-03-04T00:28:33.298Z,43.90
2018-03-04T00:29:05.312Z,44.00
2018-03-04T00:29:38.121Z,44.00
2018-03-04T00:30:10.144Z,43.90
2018-03-04T00:30:42.947Z,43.90
2018-03-04T00:31:14.986Z,43.90
2018-03-04T00:31:47.013Z,43.90
2018-03-04T00:32:19.817Z,43.90
2018-03-04T00:32:51.846Z,43.90
2018-03-04T00:33:23.891Z,43.90
2018-03-04T00:33:56.686Z,43.90
2018-03-04T00:34:28.732Z,43.90
2018-03-04T00:35:00.765Z,43.90
2018-03-04T00:35:33.576Z,43.90
2018-03-04T00:36:05.611Z,43.90
2018-03-04T00:36:37.652Z,43.90
2018-03-04T00:37:09.705Z,43.90
2018-03-04T00:37:41.734Z,44.70
2018-03-04T00:38:14.544Z,43.90
2018-03-04T00:38:46.594Z,43.80
2018-03-04T00:39:18.614Z,44.00
2018-03-04T00:39:50.663Z,44.00
2018-03-04T00:40:23.478Z,43.90
2018-03-04T00:40:55.555Z,43.90
2018-03-04T00:41:27.570Z,43.90
2018-03-04T00:41:59.602Z,43.90
2018-03-04T00:42:31.676Z,43.90
2018-03-04T00:43:03.752Z,43.90
2018-03-04T00:43:35.780Z,43.90
2018-03-04T00:44:07.811Z,43.90
2018-03-04T00:44:39.877Z,44.00
2018-03-04T00:45:11.916Z,44.00
2018-03-04T00:45:43.989Z,44.00
2018-03-04T00:46:16.082Z,43.90
2018-03-04T00:47:25.767Z,43.80
2018-03-04T00:47:57.803Z,43.80
2018-03-04T00:48:29.822Z,43.80
2018-03-04T00:49:02.652Z,43.90
2018-03-04T00:49:34.668Z,43.90
2018-03-04T00:50:06.720Z,43.80
2018-03-04T00:50:38.733Z,43.90
2018-03-04T00:51:10.752Z,43.90
2018-03-04T00:51:42.781Z,43.90
2018-03-04T00:52:18.134Z,43.90
2018-03-04T00:52:50.181Z,43.90
2018-03-04T00:53:22.228Z,43.90
2018-03-04T00:53:54.246Z,43.80
2018-03-04T00:54:26.284Z,43.90
2018-03-04T00:54:59.089Z,43.90
2018-03-04T00:55:31.113Z,43.90
2018-03-04T00:56:03.230Z,43.90
2018-03-04T00:56:35.261Z,43.90
2018-03-04T00:57:07.290Z,43.90
2018-03-04T00:57:39.319Z,44.00
2018-03-04T00:58:11.357Z,44.00
2018-03-04T00:58:44.154Z,43.90
2018-03-04T00:59:16.180Z,43.90
2018-03-04T00:59:48.977Z,44.00
2018-03-04T01:00:21.017Z,44.00
2018-03-04T01:00:53.091Z,43.90
2018-03-04T01:01:25.104Z,43.90
2018-03-04T01:01:57.903Z,44.00
2018-03-04T01:02:29.934Z,43.90
2018-03-04T01:03:02.742Z,43.90
2018-03-04T01:03:34.790Z,43.90
2018-03-04T01:04:06.890Z,43.90
2018-03-04T01:04:38.922Z,43.90
2018-03-04T01:05:10.951Z,43.90
2018-03-04T01:05:42.997Z,43.90
2018-03-04T01:06:15.050Z,44.00
2018-03-04T01:06:47.080Z,43.90
2018-03-04T01:07:19.112Z,43.90
2018-03-04T01:07:51.890Z,44.00
2018-03-04T01:08:23.932Z,43.80
2018-03-04T01:08:56.717Z,44.00
2018-03-04T01:09:28.740Z,43.90
2018-03-04T01:10:01.539Z,43.90
2018-03-04T01:10:33.570Z,43.90
2018-03-04T01:11:06.393Z,43.90
2018-03-04T01:11:38.412Z,44.70
2018-03-04T01:12:10.444Z,43.90
2018-03-04T01:12:43.231Z,44.00
2018-03-04T01:13:15.270Z,44.00
2018-03-04T01:13:47.293Z,43.90
2018-03-04T01:14:19.329Z,43.90
2018-03-04T01:14:51.368Z,43.90
2018-03-04T01:15:23.388Z,43.90
2018-03-04T01:15:55.418Z,43.90
2018-03-04T01:16:28.208Z,43.90
2018-03-04T01:17:00.239Z,43.90
2018-03-04T01:17:32.292Z,44.00
2018-03-04T01:18:05.086Z,44.00
2018-03-04T01:18:37.116Z,43.90
2018-03-04T01:19:09.901Z,43.90
2018-03-04T01:19:41.939Z,44.00
2018-03-04T01:20:51.878Z,43.90
2018-03-04T01:21:23.912Z,43.90
2018-03-04T01:21:56.698Z,43.90
2018-03-04T01:22:28.732Z,43.90
2018-03-04T01:23:01.520Z,44.00
2018-03-04T01:23:33.544Z,44.70
2018-03-04T01:24:06.341Z,43.90
2018-03-04T01:24:38.395Z,43.90
2018-03-04T01:25:10.427Z,43.90
2018-03-04T01:25:43.227Z,43.90
2018-03-04T01:26:15.256Z,43.80
2018-03-04T01:26:48.039Z,43.90
2018-03-04T01:27:20.052Z,44.00
2018-03-04T01:27:52.846Z,44.00
2018-03-04T01:28:24.908Z,44.00
2018-03-04T01:29:00.368Z,44.00
2018-03-04T01:29:32.397Z,43.90
2018-03-04T01:30:04.413Z,43.90
2018-03-04T01:30:37.211Z,43.90
2018-03-04T01:31:09.245Z,43.90
2018-03-04T01:31:42.037Z,43.90
2018-03-04T01:32:14.056Z,43.90
2018-03-04T01:32:46.071Z,43.90
2018-03-04T01:33:18.097Z,43.90
2018-03-04T01:33:50.116Z,43.90
2018-03-04T01:34:22.970Z,44.00
2018-03-04T01:34:55.006Z,43.90
2018-03-04T01:35:27.039Z,44.00
2018-03-04T01:35:59.056Z,43.90
2018-03-04T01:36:31.064Z,44.00
2018-03-04T01:37:03.106Z,43.90
2018-03-04T01:37:35.138Z,44.00
2018-03-04T01:38:07.154Z,44.00
2018-03-04T01:38:39.176Z,44.00
2018-03-04T01:39:11.195Z,44.00
2018-03-04T01:39:43.225Z,44.00
2018-03-04T01:40:15.264Z,44.00
2018-03-04T01:40:50.523Z,44.00
2018-03-04T01:41:22.541Z,43.90
2018-03-04T01:41:54.586Z,43.90
2018-03-04T01:42:26.612Z,43.90
2018-03-04T01:42:58.647Z,44.00
2018-03-04T01:43:30.691Z,44.00
2018-03-04T01:44:02.718Z,44.00
2018-03-04T01:44:34.747Z,43.90
2018-03-04T01:45:06.802Z,43.90
2018-03-04T01:45:38.836Z,43.90
2018-03-04T01:46:11.633Z,44.00
2018-03-04T01:46:43.649Z,44.00
2018-03-04T01:47:15.721Z,44.00
2018-03-04T01:47:47.747Z,44.00
2018-03-04T01:48:19.772Z,44.00
2018-03-04T01:48:51.801Z,43.90
2018-03-04T01:49:24.603Z,43.90
2018-03-04T01:49:56.640Z,43.90
2018-03-04T01:50:31.995Z,43.90
2018-03-04T01:51:04.029Z,43.90
2018-03-04T01:51:36.065Z,43.90
2018-03-04T01:52:08.110Z,43.90
2018-03-04T01:52:40.138Z,43.90
2018-03-04T01:53:12.182Z,43.90
2018-03-04T01:53:44.225Z,43.90
2018-03-04T01:54:16.271Z,44.00
2018-03-04T01:54:48.318Z,44.00
2018-03-04T01:55:20.351Z,44.00
2018-03-04T01:55:53.162Z,43.90
2018-03-04T01:56:25.201Z,43.90
2018-03-04T01:56:57.230Z,44.00
2018-03-04T01:57:30.020Z,44.00
2018-03-04T01:58:02.088Z,43.90
2018-03-04T01:58:34.128Z,43.90
2018-03-04T01:59:06.162Z,43.90
2018-03-04T01:59:38.213Z,43.90
2018-03-04T02:00:10.242Z,43.90
2018-03-04T02:00:43.041Z,44.70
2018-03-04T02:01:15.077Z,43.90
2018-03-04T02:01:47.136Z,43.90
2018-03-04T02:02:19.192Z,43.90
2018-03-04T02:02:51.208Z,44.00
2018-03-04T02:03:23.244Z,44.00
2018-03-04T02:03:55.281Z,44.00
2018-03-04T02:04:27.305Z,44.00
2018-03-04T02:04:59.337Z,44.00
2018-03-04T02:05:32.121Z,44.00
2018-03-04T02:06:04.148Z,44.00
2018-03-04T02:06:36.932Z,44.10
2018-03-04T02:07:08.964Z,44.00
2018-03-04T02:07:41.771Z,44.00
2018-03-04T02:08:13.808Z,44.00
2018-03-04T02:08:45.848Z,44.00
2018-03-04T02:09:17.881Z,44.00
2018-03-04T02:09:50.722Z,44.00
2018-03-04T02:10:22.726Z,43.90
2018-03-04T02:10:54.764Z,43.90
2018-03-04T02:11:27.557Z,44.00
2018-03-04T02:11:59.574Z,43.90
2018-03-04T02:12:32.391Z,44.00
2018-03-04T02:13:04.410Z,43.90
2018-03-04T02:13:36.452Z,44.00
2018-03-04T02:14:09.241Z,44.00
2018-03-04T02:14:41.264Z,44.00
2018-03-04T02:15:14.077Z,44.00
2018-03-04T02:15:46.106Z,44.00
2018-03-04T02:16:18.141Z,44.00
2018-03-04T02:16:50.925Z,44.00
2018-03-04T02:17:22.972Z,44.00
2018-03-04T02:17:55.769Z,44.00
2018-03-04T02:18:27.792Z,43.90
2018-03-04T02:18:59.828Z,44.00
2018-03-04T02:19:32.615Z,44.00
2018-03-04T02:20:04.648Z,44.00
2018-03-04T02:20:37.477Z,44.00
2018-03-04T02:21:09.506Z,44.00
2018-03-04T02:21:41.525Z,44.00
2018-03-04T02:22:14.330Z,44.00
2018-03-04T02:22:46.338Z,44.00
2018-03-04T02:23:19.140Z,44.10
2018-03-04T02:23:51.164Z,44.00
2018-03-04T02:24:23.983Z,44.00
2018-03-04T02:24:56.010Z,44.00
2018-03-04T02:25:28.036Z,44.00
2018-03-04T02:26:00.813Z,44.10
2018-03-04T02:26:32.849Z,44.00
2018-03-04T02:27:05.651Z,44.10
2018-03-04T02:27:37.682Z,44.10
2018-03-04T02:28:10.487Z,44.10
2018-03-04T02:28:42.545Z,44.00
2018-03-04T02:29:14.578Z,44.00
2018-03-04T02:29:46.619Z,44.00
2018-03-04T02:30:18.637Z,44.00
2018-03-04T02:30:51.457Z,44.00
2018-03-04T02:31:23.490Z,44.00
2018-03-04T02:31:55.504Z,44.00
2018-03-04T02:32:27.596Z,44.00
2018-03-04T02:32:59.616Z,44.00
2018-03-04T02:33:31.646Z,44.00
2018-03-04T02:34:03.678Z,43.90
2018-03-04T02:34:35.738Z,44.00
2018-03-04T02:35:07.772Z,44.00
2018-03-04T02:35:39.796Z,44.00
2018-03-04T02:36:11.819Z,44.00
2018-03-04T02:36:43.884Z,44.00
2018-03-04T02:37:15.892Z,44.00
2018-03-04T02:37:47.925Z,44.00
2018-03-04T02:38:19.952Z,44.00
2018-03-04T02:38:51.982Z,44.00
2018-03-04T02:39:24.769Z,44.10
2018-03-04T02:39:56.812Z,44.00
2018-03-04T02:40:29.638Z,44.10
2018-03-04T02:41:01.660Z,44.10
2018-03-04T02:41:33.685Z,44.80
2018-03-04T02:42:05.737Z,44.10
2018-03-04T02:42:37.788Z,44.10
2018-03-04T02:43:10.580Z,44.10
2018-03-04T02:43:42.598Z,44.00
2018-03-04T02:44:14.669Z,44.10
2018-03-04T02:44:46.706Z,44.10
2018-03-04T02:45:20.317Z,44.10
2018-03-04T02:45:54.336Z,44.00
2018-03-04T02:46:29.434Z,44.00
2018-03-04T02:47:08.442Z,44.00
2018-03-04T02:47:45.215Z,44.10
2018-03-04T02:48:29.651Z,44.10
2018-03-04T02:49:18.806Z,44.10
2018-03-04T02:49:55.769Z,44.10
2018-03-04T02:51:13.165Z,44.10
2018-03-04T02:51:45.532Z,44.20
2018-03-04T02:52:17.999Z,44.20
2018-03-04T02:52:50.306Z,44.10
2018-03-04T02:53:23.854Z,44.20
2018-03-04T02:53:58.671Z,44.10
2018-03-04T02:54:30.936Z,44.10
2018-03-04T02:55:03.221Z,44.20
2018-03-04T02:55:35.540Z,44.10
2018-03-04T02:56:14.521Z,44.20
2018-03-04T02:56:48.366Z,44.10
2018-03-04T02:57:20.692Z,44.20
2018-03-04T02:57:53.683Z,44.20
2018-03-04T02:58:26.038Z,44.20
2018-03-04T02:59:00.658Z,44.20
2018-03-04T02:59:32.907Z,44.10
2018-03-04T03:00:06.185Z,44.10
2018-03-04T03:00:39.576Z,44.10
2018-03-04T03:01:11.927Z,44.10
2018-03-04T03:01:44.720Z,44.20
2018-03-04T03:02:19.909Z,44.20
2018-03-04T03:02:53.408Z,44.20
2018-03-04T03:03:25.749Z,44.10
2018-03-04T03:03:58.530Z,44.20
2018-03-04T03:04:30.986Z,44.10
2018-03-04T03:05:03.342Z,44.10
2018-03-04T03:05:36.622Z,44.10
2018-03-04T03:06:08.877Z,44.10
2018-03-04T03:06:41.951Z,44.10
2018-03-04T03:07:15.007Z,44.10
2018-03-04T03:07:47.284Z,44.10
2018-03-04T03:08:20.822Z,44.10
2018-03-04T03:08:53.850Z,44.00
2018-03-04T03:09:27.792Z,44.00
2018-03-04T03:10:01.606Z,44.00
2018-03-04T03:10:34.658Z,44.00
2018-03-04T03:11:10.042Z,44.10
2018-03-04T03:11:42.614Z,44.10
2018-03-04T03:12:16.619Z,44.10
2018-03-04T03:12:48.856Z,44.10
2018-03-04T03:13:22.564Z,44.10
2018-03-04T03:13:55.438Z,44.10
2018-03-04T03:14:30.040Z,44.10
2018-03-04T03:15:04.320Z,44.10
2018-03-04T03:15:37.700Z,44.10
2018-03-04T03:16:11.834Z,44.00
2018-03-04T03:16:45.618Z,44.10
2018-03-04T03:17:18.795Z,44.10
2018-03-04T03:17:57.195Z,44.20
2018-03-04T03:18:31.669Z,44.10
2018-03-04T03:19:03.992Z,44.10
2018-03-04T03:19:37.076Z,44.10
2018-03-04T03:20:10.960Z,44.00
2018-03-04T03:20:44.010Z,44.00
2018-03-04T03:21:16.264Z,44.00
2018-03-04T03:21:48.567Z,44.10
2018-03-04T03:22:23.012Z,44.10
2018-03-04T03:22:58.121Z,44.10
2018-03-04T03:23:32.438Z,44.10
2018-03-04T03:24:05.361Z,44.10
2018-03-04T03:24:41.073Z,44.10
2018-03-04T03:25:13.949Z,44.10
2018-03-04T03:25:50.249Z,44.20
2018-03-04T03:26:23.888Z,44.10
2018-03-04T03:26:56.133Z,44.10
2018-03-04T03:27:29.260Z,44.00
2018-03-04T03:28:01.572Z,44.00
2018-03-04T03:28:34.581Z,44.00
2018-03-04T03:29:06.924Z,44.00
2018-03-04T03:29:39.221Z,44.00
2018-03-04T03:30:11.424Z,44.10
2018-03-04T03:30:43.712Z,44.10
2018-03-04T03:31:16.969Z,44.00
2018-03-04T03:31:51.350Z,44.10
2018-03-04T03:32:25.249Z,44.00
2018-03-04T03:32:58.119Z,44.10
2018-03-04T03:33:30.464Z,44.10
2018-03-04T03:34:03.644Z,44.10
2018-03-04T03:34:37.345Z,44.00
2018-03-04T03:35:11.099Z,44.10
2018-03-04T03:35:43.583Z,44.10
2018-03-04T03:36:16.058Z,44.00
2018-03-04T03:36:50.657Z,44.10
2018-03-04T03:37:25.693Z,44.10
2018-03-04T03:37:58.521Z,44.10
2018-03-04T03:38:30.918Z,44.10
2018-03-04T03:39:05.616Z,44.10
2018-03-04T03:39:41.459Z,44.10
2018-03-04T03:40:14.522Z,44.10
2018-03-04T03:40:47.557Z,44.10
2018-03-04T03:41:19.780Z,44.00
2018-03-04T03:41:54.250Z,44.00
2018-03-04T03:42:30.640Z,44.10
2018-03-04T03:43:04.791Z,44.00
2018-03-04T03:43:37.102Z,44.00
2018-03-04T03:44:11.102Z,44.00
2018-03-04T03:44:43.378Z,43.90
2018-03-04T03:45:15.669Z,44.00
2018-03-04T03:45:47.969Z,44.10
2018-03-04T03:46:20.224Z,44.00
2018-03-04T03:46:52.813Z,44.10
2018-03-04T03:47:25.133Z,44.00
2018-03-04T03:47:58.465Z,44.10
2018-03-04T03:48:30.702Z,44.10
2018-03-04T03:49:03.796Z,44.10
2018-03-04T03:49:37.450Z,44.00
2018-03-04T03:50:09.754Z,44.00
2018-03-04T03:50:42.047Z,44.00
2018-03-04T03:51:15.138Z,44.00
2018-03-04T03:51:51.475Z,44.00
2018-03-04T03:52:23.737Z,44.00
2018-03-04T03:52:59.372Z,44.00
2018-03-04T03:53:32.203Z,44.00
2018-03-04T03:54:06.556Z,44.10
2018-03-04T03:54:42.043Z,44.10
2018-03-04T03:55:20.011Z,44.10
2018-03-04T03:56:31.171Z,44.00
2018-03-04T03:57:05.270Z,44.10
2018-03-04T03:57:38.307Z,44.10
2018-03-04T03:58:10.500Z,44.10
2018-03-04T03:58:44.699Z,44.10
2018-03-04T03:59:18.732Z,44.10
2018-03-04T03:59:51.077Z,44.00
2018-03-04T04:00:24.110Z,44.10
2018-03-04T04:01:36.859Z,44.10
2018-03-04T04:02:09.439Z,44.10
2018-03-04T04:02:41.663Z,44.00
2018-03-04T04:03:13.920Z,44.00
2018-03-04T04:03:48.013Z,43.90
2018-03-04T04:04:22.454Z,43.90
2018-03-04T04:04:55.794Z,43.90
2018-03-04T04:05:28.778Z,43.90
2018-03-04T04:06:04.279Z,43.90
2018-03-04T04:06:36.486Z,43.90
2018-03-04T04:07:09.511Z,44.00
2018-03-04T04:07:42.984Z,43.90
2018-03-04T04:08:17.370Z,43.90
2018-03-04T04:08:50.428Z,44.00
2018-03-04T04:09:24.466Z,44.00
2018-03-04T04:09:56.819Z,44.00
2018-03-04T04:10:29.262Z,44.80
2018-03-04T04:11:01.637Z,44.00
2018-03-04T04:11:33.910Z,44.00
2018-03-04T04:12:07.383Z,44.00
2018-03-04T04:12:39.670Z,44.00
2018-03-04T04:13:12.723Z,44.00
2018-03-04T04:13:45.960Z,44.10
2018-03-04T04:14:19.139Z,44.10
2018-03-04T04:14:51.445Z,44.00
2018-03-04T04:15:25.701Z,44.10
2018-03-04T04:15:59.552Z,44.10
2018-03-04T04:16:33.094Z,44.00
2018-03-04T04:17:06.242Z,44.00
2018-03-04T04:17:39.581Z,44.00
2018-03-04T04:18:11.837Z,44.00
2018-03-04T04:18:44.848Z,44.10
2018-03-04T04:19:17.064Z,44.10
2018-03-04T04:19:51.444Z,44.00
2018-03-04T04:20:24.008Z,44.10
2018-03-04T04:20:56.286Z,44.00
2018-03-04T04:21:30.864Z,44.00
2018-03-04T04:22:03.690Z,44.00
2018-03-04T04:22:35.981Z,44.00
2018-03-04T04:23:09.017Z,44.10
2018-03-04T04:23:42.299Z,44.00
2018-03-04T04:24:15.514Z,44.10
2018-03-04T04:24:49.375Z,44.00
2018-03-04T04:25:21.678Z,44.00
2018-03-04T04:25:56.724Z,44.00
2018-03-04T04:26:29.057Z,44.00
2018-03-04T04:27:02.867Z,44.00
2018-03-04T04:27:35.938Z,44.10
2018-03-04T04:28:08.195Z,44.00
2018-03-04T04:28:41.344Z,44.00
2018-03-04T04:29:15.268Z,44.00
2018-03-04T04:29:50.968Z,44.00
2018-03-04T04:30:24.885Z,44.00
2018-03-04T04:30:59.424Z,44.00
2018-03-04T04:31:31.862Z,44.00
2018-03-04T04:32:08.956Z,44.00
2018-03-04T04:32:41.267Z,44.00
2018-03-04T04:33:14.329Z,44.10
2018-03-04T04:33:47.565Z,44.10
2018-03-04T04:34:22.193Z,44.10
2018-03-04T04:34:55.262Z,44.00
2018-03-04T04:35:27.612Z,44.00
2018-03-04T04:36:08.469Z,44.70
2018-03-04T04:36:40.821Z,44.00
2018-03-04T04:37:13.084Z,43.90
2018-03-04T04:37:46.973Z,43.90
2018-03-04T04:38:19.841Z,44.00
2018-03-04T04:38:53.991Z,43.90
2018-03-04T04:39:27.224Z,43.90
2018-03-04T04:40:03.882Z,43.90
2018-03-04T04:40:36.881Z,43.80
2018-03-04T04:41:09.428Z,43.80
2018-03-04T04:42:21.713Z,43.60
2018-03-04T04:42:57.597Z,43.70
2018-03-04T04:43:31.859Z,43.70
2018-03-04T04:44:04.729Z,43.70
2018-03-04T04:44:37.399Z,43.70
2018-03-04T04:45:11.710Z,43.70
2018-03-04T04:45:43.894Z,43.70
2018-03-04T04:46:17.527Z,43.70
2018-03-04T04:46:50.454Z,43.70
2018-03-04T04:47:23.697Z,43.70
2018-03-04T04:47:57.696Z,43.70
2018-03-04T04:48:29.952Z,43.70
2018-03-04T04:49:05.089Z,43.70
2018-03-04T04:49:37.431Z,43.70
2018-03-04T04:50:09.699Z,43.70
2018-03-04T04:50:42.667Z,43.70
2018-03-04T04:51:15.742Z,43.50
2018-03-04T04:51:48.920Z,43.50
2018-03-04T04:52:21.996Z,43.60
2018-03-04T04:52:55.775Z,43.50
2018-03-04T04:53:29.578Z,43.50
2018-03-04T04:54:03.463Z,43.50
2018-03-04T04:54:36.650Z,43.50
2018-03-04T04:55:09.008Z,43.40
2018-03-04T04:55:48.539Z,43.50
2018-03-04T04:56:23.561Z,43.40
2018-03-04T04:56:57.248Z,43.40
2018-03-04T04:57:30.628Z,43.40
2018-03-04T04:58:05.023Z,43.50
2018-03-04T04:58:38.520Z,43.50
2018-03-04T04:59:11.520Z,43.40
2018-03-04T04:59:43.958Z,43.40
2018-03-04T05:00:17.035Z,43.40
2018-03-04T05:00:50.417Z,43.50
2018-03-04T05:02:00.352Z,43.40
2018-03-04T05:02:32.815Z,43.40
2018-03-04T05:03:09.370Z,43.40
2018-03-04T05:03:42.444Z,43.40
2018-03-04T05:05:03.661Z,43.40
2018-03-04T05:05:37.752Z,43.30
2018-03-04T05:06:12.158Z,43.30
2018-03-04T05:06:46.053Z,43.40
2018-03-04T05:07:19.345Z,43.30
2018-03-04T05:07:52.304Z,43.40
2018-03-04T05:08:26.303Z,43.40
2018-03-04T05:08:59.686Z,43.50
2018-03-04T05:09:33.272Z,43.40
2018-03-04T05:10:05.948Z,43.30
2018-03-04T05:10:38.515Z,43.50
2018-03-04T05:11:11.374Z,43.40
2018-03-04T05:11:44.959Z,43.40
2018-03-04T05:12:17.626Z,43.50
2018-03-04T05:12:50.094Z,43.40
2018-03-04T05:13:22.753Z,43.50
2018-03-04T05:13:55.930Z,43.40
2018-03-04T05:14:31.362Z,43.50
2018-03-04T05:15:04.648Z,43.40
2018-03-04T05:15:37.718Z,43.40
2018-03-04T05:16:11.305Z,43.40
2018-03-04T05:16:44.586Z,43.40
2018-03-04T05:17:17.158Z,43.40
2018-03-04T05:17:50.635Z,43.40
2018-03-04T05:18:24.631Z,43.50
2018-03-04T05:18:58.116Z,43.30
2018-03-04T05:19:30.580Z,43.40
2018-03-04T05:20:03.042Z,43.40
2018-03-04T05:20:37.657Z,43.40
2018-03-04T05:21:10.109Z,43.40
2018-03-04T05:21:42.574Z,43.40
2018-03-04T05:22:15.033Z,43.40
2018-03-04T05:22:47.492Z,43.40
2018-03-04T05:23:21.086Z,43.40
2018-03-04T05:23:54.872Z,43.40
2018-03-04T05:24:28.157Z,43.40
2018-03-04T05:25:00.598Z,43.40
2018-03-04T05:25:33.081Z,43.40
2018-03-04T05:26:05.848Z,43.40
2018-03-04T05:26:39.637Z,43.40
2018-03-04T05:27:12.198Z,43.40
2018-03-04T05:27:44.666Z,43.40
2018-03-04T05:28:19.479Z,43.40
2018-03-04T05:28:52.963Z,43.30
2018-03-04T05:29:26.556Z,43.30
2018-03-04T05:29:59.008Z,43.30
2018-03-04T05:30:32.896Z,43.40
2018-03-04T05:31:06.275Z,43.30
2018-03-04T05:31:41.207Z,43.40
2018-03-04T05:32:17.568Z,43.40
2018-03-04T05:32:50.223Z,43.40
2018-03-04T05:33:22.583Z,43.50
2018-03-04T05:33:55.658Z,43.40
2018-03-04T05:34:28.504Z,43.50
2018-03-04T05:35:07.849Z,43.40
2018-03-04T05:35:41.951Z,43.40
2018-03-04T05:36:14.713Z,43.50
2018-03-04T05:36:47.279Z,43.40
2018-03-04T05:37:19.736Z,43.40
2018-03-04T05:37:52.201Z,43.50
2018-03-04T05:38:24.666Z,43.50
2018-03-04T05:38:57.124Z,43.40
2018-03-04T05:39:29.586Z,43.40
2018-03-04T05:40:02.965Z,43.40
2018-03-04T05:40:36.252Z,43.40
2018-03-04T05:41:10.173Z,43.40
2018-03-04T05:41:43.112Z,43.30
2018-03-04T05:42:15.576Z,43.40
2018-03-04T05:42:48.138Z,43.40
2018-03-04T05:43:20.700Z,43.30
2018-03-04T05:43:53.166Z,43.30
2018-03-04T05:44:26.657Z,43.30
2018-03-04T05:44:59.419Z,43.30
2018-03-04T05:45:31.881Z,43.30
2018-03-04T05:46:04.344Z,43.20
2018-03-04T05:46:37.311Z,43.20
2018-03-04T05:47:09.669Z,43.20
2018-03-04T05:47:43.571Z,43.30
2018-03-04T05:48:16.742Z,43.30
2018-03-04T05:48:49.099Z,43.30
2018-03-04T05:49:21.459Z,43.30
2018-03-04T05:49:54.532Z,43.30
2018-03-04T05:50:27.406Z,43.30
2018-03-04T05:50:59.664Z,43.30
2018-03-04T05:51:33.247Z,43.40
2018-03-04T05:52:05.925Z,43.30
2018-03-04T05:52:38.280Z,43.40
2018-03-04T05:53:10.636Z,43.30
2018-03-04T05:53:43.809Z,43.40
2018-03-04T05:54:54.266Z,43.30
2018-03-04T05:55:28.571Z,43.20
2018-03-04T05:56:01.746Z,44.00
2018-03-04T05:56:34.923Z,43.20
2018-03-04T05:57:07.281Z,43.20
2018-03-04T05:57:40.460Z,43.20
2018-03-04T05:58:12.932Z,43.30
2018-03-04T05:58:46.168Z,43.30
2018-03-04T05:59:18.971Z,43.30
2018-03-04T05:59:51.322Z,43.30
2018-03-04T06:00:24.503Z,43.30
2018-03-04T06:00:57.578Z,43.30
2018-03-04T06:01:30.035Z,43.30
2018-03-04T06:02:02.500Z,43.20
2018-03-04T06:02:35.679Z,43.30
2018-03-04T06:03:08.118Z,43.30
2018-03-04T06:03:40.492Z,43.40
2018-03-04T06:04:14.484Z,43.30
2018-03-04T06:04:47.570Z,43.30
2018-03-04T06:05:21.459Z,43.40
2018-03-04T06:05:53.795Z,43.40
2018-03-04T06:06:26.186Z,43.30
2018-03-04T06:06:58.642Z,43.40
2018-03-04T06:07:31.580Z,43.30
2018-03-04T06:08:03.969Z,43.30
2018-03-04T06:08:36.994Z,43.30
2018-03-04T06:09:12.479Z,43.30
2018-03-04T06:09:46.422Z,43.30
2018-03-04T06:10:19.095Z,43.30
2018-03-04T06:10:51.404Z,43.40
2018-03-04T06:11:28.305Z,43.40
2018-03-04T06:12:00.625Z,43.40
2018-03-04T06:12:32.982Z,43.40
2018-03-04T06:13:05.549Z,43.40
2018-03-04T06:13:37.953Z,43.40
2018-03-04T06:14:11.188Z,43.50
2018-03-04T06:14:44.719Z,43.50
2018-03-04T06:15:17.236Z,43.40
2018-03-04T06:15:50.611Z,43.50
2018-03-04T06:16:24.714Z,43.50
2018-03-04T06:16:57.182Z,44.20
2018-03-04T06:17:32.930Z,43.50
2018-03-04T06:18:06.758Z,43.50
2018-03-04T06:18:39.060Z,43.40
2018-03-04T06:19:12.042Z,43.50
2018-03-04T06:19:45.781Z,43.40
2018-03-04T06:20:19.197Z,43.40
2018-03-04T06:20:52.446Z,43.40
2018-03-04T06:21:29.150Z,43.40
2018-03-04T06:22:01.474Z,43.40
2018-03-04T06:22:34.582Z,43.40
2018-03-04T06:23:07.562Z,43.40
2018-03-04T06:23:40.691Z,44.20
2018-03-04T06:24:13.808Z,43.40
2018-03-04T06:24:46.221Z,43.40
2018-03-04T06:25:20.846Z,43.30
2018-03-04T06:25:53.897Z,43.30
2018-03-04T06:26:26.308Z,43.30
2018-03-04T06:26:58.666Z,43.40
2018-03-04T06:27:31.950Z,43.40
2018-03-04T06:28:04.967Z,43.40
2018-03-04T06:28:38.066Z,43.40
2018-03-04T06:29:11.418Z,43.40
2018-03-04T06:29:43.624Z,43.40
2018-03-04T06:30:17.997Z,43.40
2018-03-04T06:30:53.282Z,43.40
2018-03-04T06:31:27.475Z,43.40
2018-03-04T06:32:04.302Z,43.30
2018-03-04T06:32:39.970Z,43.40
2018-03-04T06:33:13.352Z,43.40
2018-03-04T06:33:45.684Z,43.40
2018-03-04T06:34:18.057Z,43.40
2018-03-04T06:34:52.070Z,43.40
2018-03-04T06:35:26.166Z,43.40
2018-03-04T06:35:59.330Z,43.50
2018-03-04T06:36:32.513Z,43.40
2018-03-04T06:37:05.591Z,43.40
2018-03-04T06:37:38.870Z,43.50
2018-03-04T06:38:13.273Z,43.50
2018-03-04T06:38:46.434Z,43.50
2018-03-04T06:39:18.800Z,43.50
2018-03-04T06:39:53.286Z,43.50
2018-03-04T06:40:26.417Z,43.50
2018-03-04T06:40:59.353Z,43.40
2018-03-04T06:41:32.534Z,43.50
2018-03-04T06:42:05.632Z,43.50
2018-03-04T06:42:41.258Z,43.40
2018-03-04T06:43:14.240Z,43.50
2018-03-04T06:43:48.134Z,43.50
2018-03-04T06:44:20.679Z,43.40
2018-03-04T06:44:52.933Z,43.40
2018-03-04T06:45:26.408Z,43.40
2018-03-04T06:46:01.029Z,43.50
2018-03-04T06:46:34.004Z,43.40
2018-03-04T06:47:06.874Z,43.40
2018-03-04T06:47:39.144Z,43.40
2018-03-04T06:48:12.249Z,43.40
2018-03-04T06:48:45.894Z,43.40
2018-03-04T06:49:22.298Z,43.40
2018-03-04T06:49:56.609Z,43.50
2018-03-04T06:50:29.758Z,43.40
2018-03-04T06:51:04.258Z,43.40
2018-03-04T06:51:38.183Z,43.40
2018-03-04T06:52:10.396Z,43.40
2018-03-04T06:52:43.863Z,43.40
2018-03-04T06:53:18.391Z,43.40
2018-03-04T06:53:51.549Z,43.40
2018-03-04T06:54:24.664Z,43.30
2018-03-04T06:55:02.221Z,43.30
2018-03-04T06:55:35.296Z,43.30
2018-03-04T06:56:10.339Z,43.30
2018-03-04T06:56:43.273Z,43.30
2018-03-04T06:57:19.856Z,43.30
2018-03-04T06:57:53.218Z,43.30
2018-03-04T06:58:27.422Z,43.30
2018-03-04T06:58:59.760Z,43.30
2018-03-04T07:00:16.690Z,43.30
2018-03-04T07:00:51.924Z,43.20
2018-03-04T07:01:24.997Z,43.30
2018-03-04T07:02:04.029Z,43.40
2018-03-04T07:02:36.385Z,43.30
2018-03-04T07:03:08.723Z,43.40
2018-03-04T07:03:42.842Z,43.40
2018-03-04T07:04:16.102Z,43.30
2018-03-04T07:04:49.276Z,43.30
2018-03-04T07:06:06.509Z,43.30
2018-03-04T07:06:38.846Z,43.30
2018-03-04T07:07:12.536Z,43.20
2018-03-04T07:07:44.821Z,43.30
2018-03-04T07:08:18.046Z,43.30
2018-03-04T07:08:54.630Z,43.30
2018-03-04T07:09:28.195Z,43.20
2018-03-04T07:10:01.828Z,43.30
2018-03-04T07:11:13.405Z,43.20
2018-03-04T07:11:45.950Z,43.10
2018-03-04T07:12:19.763Z,43.20
2018-03-04T07:12:54.366Z,43.20